Latest Weather Observations for St Kilda Harbour RMYS

IDV60901

Issued at 4:31 pm EST Saturday 27 August 2016 (issued every 10 minutes, with the page automatically refreshed every 10 minutes)

About weather observations | Map of Melbourne area stations | Latest observations for Melbourne area | Other Formats
Station Details ID: 086220 Name: ST KILDA HARBOUR - RMYS Lat: -37.86 Lon: 144.96 Height: 6.4 m
Data from the previous 72 hours. | See also: Recent months for locations in Victoria
Date/Time
EST
Temp
°C
App
Temp
°C
Dew
Point
°C
Rel
Hum
%
Delta-T
°C
Wind Press
QNH
hPa
Press
MSL
hPa
Rain since
9am
mm
Dir  Spd
km/h
Gust
km/h
Spd
kts
Gust
kts
27/04:30pm - - - - - NNW 32 48 17 26 - - -
27/04:28pm - - - - - NNW 30 48 16 26 - - -
27/04:00pm - - - - - NW 35 44 19 24 - - -
27/03:30pm - - - - - NW 35 44 19 24 - - -
27/03:11pm - - - - - NNW 30 50 16 27 - - -
27/03:00pm - - - - - NNW 28 41 15 22 - - -
27/02:30pm - - - - - NNW 33 43 18 23 - - -
27/02:00pm - - - - - NNW 28 41 15 22 - - -
27/01:30pm - - - - - NNW 32 50 17 27 - - -
27/01:22pm - - - - - NW 28 50 15 27 - - -
27/01:00pm - - - - - NNW 24 37 13 20 - - -
27/12:30pm - - - - - WNW 17 24 9 13 - - -
27/12:00pm - - - - - NW 22 28 12 15 - - -
27/11:30am - - - - - NW 26 35 14 19 - - -
27/11:00am - - - - - NW 24 32 13 17 - - -
27/10:30am - - - - - WNW 26 33 14 18 - - -
27/10:00am - - - - - NW 32 44 17 24 - - -
27/09:35am - - - - - NNW 28 50 15 27 - - -
27/09:30am - - - - - NNW 22 35 12 19 - - -
27/09:00am - - - - - NNW 22 32 12 17 - - -
27/08:30am - - - - - NNW 15 22 8 12 - - -
27/08:00am - - - - - NNW 17 20 9 11 - - -
27/07:30am - - - - - NNW 17 22 9 12 - - -
27/07:00am - - - - - NNW 20 30 11 16 - - -
27/06:30am - - - - - NNW 20 28 11 15 - - -
27/06:00am - - - - - NNW 22 32 12 17 - - -
27/05:30am - - - - - NNW 22 28 12 15 - - -
27/05:00am - - - - - NNW 20 28 11 15 - - -
27/04:30am - - - - - NNW 15 19 8 10 - - -
27/04:00am - - - - - NW 15 19 8 10 - - -
27/03:30am - - - - - NNW 13 19 7 10 - - -
27/03:00am - - - - - NNW 15 19 8 10 - - -
27/02:30am - - - - - NNW 15 20 8 11 - - -
27/02:00am - - - - - NNW 15 19 8 10 - - -
27/01:30am - - - - - NNW 15 19 8 10 - - -
27/01:00am - - - - - NNW 13 17 7 9 - - -
27/12:30am - - - - - NNW 13 17 7 9 - - -
27/12:00am - - - - - NW 15 19 8 10 - - -
 
Date/Time
EST
Temp
°C
App
Temp
°C
Dew
Point
°C
Rel
Hum
%
Delta-T
°C
Wind Press
QNH
hPa
Press
MSL
hPa
Rain since
9am
mm
Dir  Spd
km/h
Gust
km/h
Spd
kts
Gust
kts
26/11:30pm - - - - - NNW 13 19 7 10 - - -
26/11:00pm - - - - - NNW 13 17 7 9 - - -
26/10:30pm - - - - - NNW 11 15 6 8 - - -
26/10:00pm - - - - - NNW 11 15 6 8 - - -
26/09:30pm - - - - - NNW 15 19 8 10 - - -
26/09:00pm - - - - - NW 17 22 9 12 - - -
26/08:30pm - - - - - NW 19 20 10 11 - - -
26/08:00pm - - - - - NW 17 20 9 11 - - -
26/07:30pm - - - - - NW 19 24 10 13 - - -
26/07:00pm - - - - - NW 17 20 9 11 - - -
26/06:30pm - - - - - NW 19 22 10 12 - - -
26/06:00pm - - - - - WNW 19 24 10 13 - - -
26/05:30pm - - - - - WNW 20 24 11 13 - - -
26/05:00pm - - - - - W 15 20 8 11 - - -
26/04:30pm - - - - - WNW 17 22 9 12 - - -
26/04:00pm - - - - - W 15 22 8 12 - - -
26/03:30pm - - - - - W 11 15 6 8 - - -
26/03:00pm - - - - - SW 19 26 10 14 - - -
26/02:30pm - - - - - WSW 17 20 9 11 - - -
26/02:00pm - - - - - WSW 19 22 10 12 - - -
26/01:30pm - - - - - SW 20 24 11 13 - - -
26/01:00pm - - - - - SW 22 30 12 16 - - -
26/12:30pm - - - - - WSW 20 24 11 13 - - -
26/12:00pm - - - - - WSW 26 32 14 17 - - -
26/11:30am - - - - - WSW 20 24 11 13 - - -
26/11:00am - - - - - WSW 19 24 10 13 - - -
26/10:30am - - - - - W 22 32 12 17 - - -
26/10:00am - - - - - W 20 24 11 13 - - -
26/09:30am - - - - - WNW 20 24 11 13 - - -
26/09:00am - - - - - WNW 19 24 10 13 - - -
26/08:30am - - - - - WNW 13 17 7 9 - - -
26/08:00am - - - - - NNW 7 11 4 6 - - -
26/07:30am - - - - - NW 9 15 5 8 - - -
26/07:00am - - - - - WNW 11 15 6 8 - - -
26/06:30am - - - - - NW 13 17 7 9 - - -
26/06:00am - - - - - NW 15 17 8 9 - - -
26/05:30am - - - - - NW 15 19 8 10 - - -
26/05:00am - - - - - W 26 33 14 18 - - -
26/04:30am - - - - - WSW 26 33 14 18 - - -
26/04:00am - - - - - W 19 24 10 13 - - -
26/03:30am - - - - - W 19 20 10 11 - - -
26/03:00am - - - - - NW 9 15 5 8 - - -
26/02:30am - - - - - NW 9 13 5 7 - - -
26/02:00am - - - - - NW 9 13 5 7 - - -
26/01:30am - - - - - W 17 20 9 11 - - -
26/01:00am - - - - - W 19 22 10 12 - - -
26/12:30am - - - - - WSW 26 32 14 17 - - -
26/12:00am - - - - - W 19 22 10 12 - - -
 
Date/Time
EST
Temp
°C
App
Temp
°C
Dew
Point
°C
Rel
Hum
%
Delta-T
°C
Wind Press
QNH
hPa
Press
MSL
hPa
Rain since
9am
mm
Dir  Spd
km/h
Gust
km/h
Spd
kts
Gust
kts
25/11:30pm - - - - - WSW 22 24 12 13 - - -
25/11:00pm - - - - - W 20 22 11 12 - - -
25/10:30pm - - - - - WSW 22 28 12 15 - - -
25/10:00pm - - - - - SW 30 37 16 20 - - -
25/09:30pm - - - - - SW 24 32 13 17 - - -
25/09:00pm - - - - - SW 22 26 12 14 - - -
25/08:30pm - - - - - SW 26 32 14 17 - - -
25/08:00pm - - - - - SSW 30 39 16 21 - - -
25/07:30pm - - - - - SSW 26 33 14 18 - - -
25/07:00pm - - - - - SSW 20 22 11 12 - - -
25/06:30pm - - - - - SSW 24 28 13 15 - - -
25/06:00pm - - - - - SW 20 24 11 13 - - -
25/05:30pm - - - - - SSW 19 22 10 12 - - -
25/05:00pm - - - - - SSW 26 30 14 16 - - -
25/04:30pm - - - - - SSW 28 33 15 18 - - -
25/04:00pm - - - - - SSW 26 30 14 16 - - -
25/03:30pm - - - - - SSW 26 30 14 16 - - -
25/03:00pm - - - - - SSW 20 24 11 13 - - -
25/02:30pm - - - - - SSW 19 20 10 11 - - -
25/02:00pm - - - - - SSW 24 33 13 18 - - -
25/01:30pm - - - - - SW 32 39 17 21 - - -
25/01:00pm - - - - - SW 33 39 18 21 - - -
25/12:30pm - - - - - WSW 30 33 16 18 - - -
25/12:00pm - - - - - SW 22 33 12 18 - - -
25/11:30am - - - - - SW 32 39 17 21 - - -
25/11:00am - - - - - WSW 26 30 14 16 - - -
25/10:30am - - - - - WSW 33 41 18 22 - - -
25/10:00am - - - - - WSW 24 28 13 15 - - -
25/09:30am - - - - - W 20 28 11 15 - - -
25/09:00am - - - - - WSW 28 35 15 19 - - -
25/08:30am - - - - - WSW 28 35 15 19 - - -
25/08:00am - - - - - WSW 22 28 12 15 - - -
25/07:30am - - - - - W 19 22 10 12 - - -
25/07:00am - - - - - WSW 26 30 14 16 - - -
25/06:30am - - - - - W 28 33 15 18 - - -
25/06:00am - - - - - WSW 35 43 19 23 - - -
25/05:30am - - - - - WSW 32 39 17 21 - - -
25/05:00am - - - - - WSW 32 37 17 20 - - -
25/04:30am - - - - - WSW 30 35 16 19 - - -
25/04:00am - - - - - W 22 26 12 14 - - -
25/03:30am - - - - - W 24 32 13 17 - - -
25/03:00am - - - - - W 24 30 13 16 - - -
25/02:30am - - - - - WSW 30 33 16 18 - - -
25/02:00am - - - - - WSW 28 32 15 17 - - -
25/01:30am - - - - - WSW 26 28 14 15 - - -
25/01:00am - - - - - WSW 26 32 14 17 - - -
25/12:30am - - - - - WSW 26 33 14 18 - - -
25/12:00am - - - - - WSW 32 35 17 19 - - -
 
Date/Time
EST
Temp
°C
App
Temp
°C
Dew
Point
°C
Rel
Hum
%
Delta-T
°C
Wind Press
QNH
hPa
Press
MSL
hPa
Rain since
9am
mm
Dir  Spd
km/h
Gust
km/h
Spd
kts
Gust
kts
24/11:30pm - - - - - WSW 24 28 13 15 - - -
24/11:00pm - - - - - WSW 24 30 13 16 - - -
24/10:30pm - - - - - SW 11 15 6 8 - - -
24/10:00pm - - - - - SSE 7 11 4 6 - - -
24/09:30pm - - - - - S 20 28 11 15 - - -
24/09:08pm - - - - - S 19 39 10 21 - - -
24/09:00pm - - - - - SSE 15 20 8 11 - - -
24/08:30pm - - - - - S 22 41 12 22 - - -
24/08:00pm - - - - - SSE 15 20 8 11 - - -
24/07:30pm - - - - - SSE 15 19 8 10 - - -
24/07:00pm - - - - - S 20 24 11 13 - - -
24/06:30pm - - - - - SSE 24 28 13 15 - - -
24/06:00pm - - - - - S 24 28 13 15 - - -
24/05:30pm - - - - - S 22 28 12 15 - - -
24/05:00pm - - - - - S 26 30 14 16 - - -

Latest Capital City Observations: Canberra | Sydney | Melbourne | Brisbane | Adelaide | Perth | Hobart | Darwin

Other Formats:

Comma delimited format used in spreadsheet applications
http://www.bom.gov.au/fwo/IDV60901/IDV60901.95864.axf

JavaScript Object Notation format (JSON) in row-major order
http://www.bom.gov.au/fwo/IDV60901/IDV60901.95864.json